20°C Temp
16°C Dewpoint
% Humidity
Temperature
2 KM/H
1 MPH
1 KTS
Calm
Due North

Wind Speed
Clear
Conditions
Pressure 1019.92 (hPa) - 30.12 (in)
Visibility 6.2 (mi) - 10.0 (km)

Current Conditions
LIRQ
Location 70(km)
Metar :LIRQ 250420Z VRB01KT CAVOK 20/16 Q1020
Tue 25th June 06:20 am

Airport
  Metar Aviation API Data Provided by https://www.checkwx.com/ PHP scripts by weather34.com ©2019